Time;durP1;ratioP1;P1;durP2;ratioP2;P2;SDS_P1;SDS_P2;PMS_P1;PMS_P2;Temp;Humidity;BMP_temperature;BMP_pressure;BME280_temperature;BME280_humidity;BME280_pressure;Samples;Min_cycle;Max_cycle;Signal;HPM_P1;HPM_P2
2023/08/07 00:00:39;;;;;;;3.22;1.60;;;;;;;14.35;66.90;97087.09;4940649;28;20218;-77
2023/08/07 00:03:04;;;;;;;1.88;1.60;;;;;;;14.47;68.04;97091.22;4928420;28;20627;-78
2023/08/07 00:05:30;;;;;;;3.92;1.67;;;;;;;14.49;66.98;97091.75;4926170;28;20274;-77
2023/08/07 00:07:55;;;;;;;4.28;1.05;;;;;;;14.44;66.64;97097.78;4913713;28;20165;-77
2023/08/07 00:10:20;;;;;;;1.70;1.17;;;;;;;14.45;67.60;97094.13;4944210;28;20189;-77
2023/08/07 00:12:46;;;;;;;3.30;1.33;;;;;;;14.44;67.82;97100.41;4941845;28;20150;-78
2023/08/07 00:15:11;;;;;;;2.05;1.45;;;;;;;14.33;68.10;97099.69;4940283;28;20187;-77
2023/08/07 00:17:37;;;;;;;3.53;1.52;;;;;;;14.32;67.48;97092.09;4944311;28;20200;-78
2023/08/07 00:20:03;;;;;;;2.58;1.48;;;;;;;14.38;68.40;97112.75;4929938;28;20239;-78
2023/08/07 00:22:29;;;;;;;4.13;1.40;;;;;;;14.35;67.96;97108.03;4928385;28;20255;-77
2023/08/07 00:24:54;;;;;;;3.78;1.17;;;;;;;14.33;66.79;97104.91;4918092;28;20276;-77
2023/08/07 00:27:19;;;;;;;4.25;1.33;;;;;;;14.28;67.86;97112.03;4936578;28;20220;-77
2023/08/07 00:29:45;;;;;;;4.50;1.83;;;;;;;14.31;68.64;97104.41;4940310;28;20624;-77
2023/08/07 00:32:10;;;;;;;2.85;1.30;;;;;;;14.30;68.45;97105.44;4928091;28;20158;-77
2023/08/07 00:34:35;;;;;;;2.45;1.60;;;;;;;14.16;69.74;97104.47;4920629;28;20227;-76
2023/08/07 00:37:01;;;;;;;1.88;1.55;;;;;;;14.28;68.22;97104.94;4953319;28;20224;-77
2023/08/07 00:39:26;;;;;;;3.60;1.48;;;;;;;14.10;69.06;97102.94;4956421;28;20199;-79
2023/08/07 00:41:51;;;;;;;3.53;1.88;;;;;;;14.19;68.67;97104.72;4951284;28;20526;-77
2023/08/07 00:44:17;;;;;;;1.98;1.60;;;;;;;14.26;68.23;97104.44;4919076;28;20278;-77
2023/08/07 00:46:43;;;;;;;2.90;1.13;;;;;;;14.29;68.14;97103.91;4950001;28;20199;-76
2023/08/07 00:49:09;;;;;;;3.45;1.80;;;;;;;14.10;68.96;97100.31;4940719;28;20246;-77
2023/08/07 00:51:35;;;;;;;3.00;1.40;;;;;;;14.17;68.79;97098.19;4949901;28;20295;-78
2023/08/07 00:54:02;;;;;;;1.88;1.20;;;;;;;14.19;68.43;97098.72;4927683;28;20365;-76
2023/08/07 00:56:28;;;;;;;3.00;1.58;;;;;;;14.20;68.32;97111.50;4935207;28;20223;-76
2023/08/07 00:58:53;;;;;;;2.70;1.33;;;;;;;14.13;69.40;97102.41;4940137;28;20627;-77
2023/08/07 01:01:19;;;;;;;5.13;1.60;;;;;;;13.96;70.00;97102.72;4948519;28;20103;-77
2023/08/07 01:03:44;;;;;;;4.40;2.00;;;;;;;13.96;69.29;97100.88;4941012;23;20103;-79
2023/08/07 01:06:09;;;;;;;3.67;1.40;;;;;;;13.99;69.00;97108.19;4925502;28;20326;-79
2023/08/07 01:08:35;;;;;;;2.72;1.60;;;;;;;13.99;69.53;97105.59;4899953;28;20706;-79
2023/08/07 01:11:38;;;;;;;2.45;1.80;;;;;;;14.02;69.01;97109.50;4895909;28;20252;-77
2023/08/07 01:14:09;;;;;;;4.93;1.70;;;;;;;13.98;68.92;97118.94;4906748;28;20269;-80
2023/08/07 01:16:37;;;;;;;5.65;1.60;;;;;;;14.03;69.18;97111.06;4893515;28;20650;-81
2023/08/07 01:19:04;;;;;;;3.45;1.95;;;;;;;14.00;69.84;97122.88;4912575;28;20676;-79
2023/08/07 01:21:33;;;;;;;4.10;1.85;;;;;;;14.02;67.94;97107.66;4908737;28;20216;-79
2023/08/07 01:23:59;;;;;;;4.72;1.40;;;;;;;14.08;68.83;97112.88;4914338;28;20210;-80
2023/08/07 01:26:24;;;;;;;6.88;1.90;;;;;;;14.10;68.55;97111.56;4906715;28;20268;-81
2023/08/07 01:29:03;;;;;;;3.03;1.38;;;;;;;14.14;69.47;97103.97;4894499;28;20217;-80
2023/08/07 01:31:29;;;;;;;2.42;1.40;;;;;;;14.12;69.10;97106.06;4878143;28;20282;-80
2023/08/07 01:33:58;;;;;;;4.55;1.70;;;;;;;14.11;69.61;97115.75;4887809;28;20211;-80
2023/08/07 01:36:27;;;;;;;3.88;1.40;;;;;;;14.11;69.00;97112.34;4895182;28;20183;-78
2023/08/07 01:38:52;;;;;;;3.40;2.03;;;;;;;14.01;68.61;97113.16;4879456;28;20277;-79
2023/08/07 01:41:18;;;;;;;3.30;1.40;;;;;;;13.78;69.96;97114.56;4921978;28;20694;-80
2023/08/07 01:43:43;;;;;;;4.88;2.10;;;;;;;13.94;68.85;97121.31;4890678;28;20233;-80
2023/08/07 01:46:10;;;;;;;4.35;1.38;;;;;;;14.03;69.00;97116.31;4900721;28;20273;-80
2023/08/07 01:48:36;;;;;;;2.95;1.70;;;;;;;14.05;68.61;97116.81;4895897;28;20732;-79
2023/08/07 01:51:01;;;;;;;3.03;1.70;;;;;;;14.05;69.33;97117.63;4912036;28;20058;-81
2023/08/07 01:53:26;;;;;;;3.58;1.88;;;;;;;14.03;68.83;97122.34;4912967;28;20046;-80
2023/08/07 01:55:52;;;;;;;3.42;1.60;;;;;;;14.05;69.05;97129.91;4900975;28;20033;-80
2023/08/07 01:58:17;;;;;;;3.22;1.58;;;;;;;13.99;69.70;97131.75;4899582;28;20033;-82
2023/08/07 02:00:42;;;;;;;5.40;1.98;;;;;;;13.89;68.92;97134.41;4926646;28;20095;-80
2023/08/07 02:03:08;;;;;;;5.68;2.55;;;;;;;13.95;70.08;97127.31;4909170;28;20133;-81
2023/08/07 02:05:33;;;;;;;5.45;2.13;;;;;;;13.97;69.07;97128.63;4884108;28;20368;-79
2023/08/07 02:07:59;;;;;;;3.88;1.60;;;;;;;13.80;69.57;97128.16;4899702;28;20117;-80
2023/08/07 02:10:25;;;;;;;2.90;1.58;;;;;;;13.81;70.28;97140.19;4897089;28;20022;-80
2023/08/07 02:12:50;;;;;;;4.57;1.80;;;;;;;13.70;70.23;97142.03;4907856;28;20739;-81
2023/08/07 02:15:15;;;;;;;3.95;2.33;;;;;;;13.78;70.37;97143.34;4887291;28;20034;-80
2023/08/07 02:17:42;;;;;;;4.72;2.03;;;;;;;13.77;70.83;97139.16;4900198;28;20556;-79
2023/08/07 02:20:08;;;;;;;4.10;2.17;;;;;;;13.83;68.78;97140.72;4916384;28;20102;-80
2023/08/07 02:22:33;;;;;;;3.63;1.73;;;;;;;13.82;69.71;97136.53;4911610;28;20900;-79
2023/08/07 02:24:59;;;;;;;4.00;2.30;;;;;;;13.86;69.34;97145.41;4913483;28;20033;-79
2023/08/07 02:27:24;;;;;;;3.65;1.73;;;;;;;13.82;69.61;97150.38;4885381;28;20084;-79
2023/08/07 02:29:50;;;;;;;5.55;2.35;;;;;;;13.88;70.22;97147.75;4894582;28;20030;-79
2023/08/07 02:32:16;;;;;;;6.47;2.00;;;;;;;13.86;69.74;97153.25;4908631;28;20022;-78
2023/08/07 02:34:41;;;;;;;3.05;2.10;;;;;;;13.85;68.94;97147.25;4897289;28;20820;-78
2023/08/07 02:37:07;;;;;;;3.13;1.50;;;;;;;13.89;69.92;97154.56;4913309;28;20103;-79
2023/08/07 02:39:32;;;;;;;5.13;2.35;;;;;;;13.79;69.62;97150.91;4913032;28;20045;-78
2023/08/07 02:41:57;;;;;;;3.10;2.10;;;;;;;13.87;69.51;97149.59;4902802;28;20085;-78
2023/08/07 02:44:23;;;;;;;4.10;2.42;;;;;;;13.83;70.07;97135.50;4901246;28;20034;-78
2023/08/07 02:46:48;;;;;;;4.25;2.00;;;;;;;13.86;69.70;97145.41;4901843;28;20045;-78
2023/08/07 02:49:13;;;;;;;4.97;1.90;;;;;;;13.76;70.01;97148.03;4928740;28;20132;-78
2023/08/07 02:51:39;;;;;;;4.32;1.88;;;;;;;13.83;69.79;97148.56;4900769;28;20053;-78
2023/08/07 02:54:04;;;;;;;5.90;1.98;;;;;;;13.90;69.93;97151.69;4899071;28;20275;-78
2023/08/07 02:56:30;;;;;;;6.60;2.00;;;;;;;13.91;69.65;97148.00;4904104;28;20535;-78
2023/08/07 02:58:58;;;;;;;4.38;2.10;;;;;;;13.81;69.79;97145.41;4902765;28;20861;-79
2023/08/07 03:01:23;;;;;;;5.47;2.17;;;;;;;13.78;69.81;97148.59;4908930;28;20108;-78
2023/08/07 03:03:49;;;;;;;3.50;1.85;;;;;;;13.81;69.36;97155.88;4912739;28;20126;-78
2023/08/07 03:06:14;;;;;;;5.57;2.05;;;;;;;13.81;68.98;97134.94;4892580;28;20699;-79
2023/08/07 03:08:39;;;;;;;3.30;1.90;;;;;;;13.91;69.18;97153.25;4932472;28;20707;-78
2023/08/07 03:11:05;;;;;;;5.68;2.40;;;;;;;13.77;68.76;97149.63;4906866;28;20023;-78
2023/08/07 03:13:30;;;;;;;5.05;1.85;;;;;;;13.81;69.36;97145.41;4884642;28;20909;-80
2023/08/07 03:16:04;;;;;;;4.05;2.08;;;;;;;13.92;68.25;97152.22;4899746;28;20026;-78
2023/08/07 03:18:29;;;;;;;4.68;2.10;;;;;;;13.93;69.21;97161.63;4904572;28;20026;-78
2023/08/07 03:20:58;;;;;;;4.72;2.42;;;;;;;13.97;68.54;97164.50;4892162;28;20092;-78
2023/08/07 03:23:25;;;;;;;4.32;2.08;;;;;;;13.81;69.09;97140.19;4903906;28;20121;-78
2023/08/07 03:25:50;;;;;;;5.18;2.00;;;;;;;13.89;68.31;97154.56;4891444;28;20080;-78
2023/08/07 03:28:17;;;;;;;5.07;2.00;;;;;;;13.85;69.76;97160.34;4914576;28;20029;-79
2023/08/07 03:30:44;;;;;;;3.97;1.70;;;;;;;13.87;69.61;97154.84;4898867;28;20029;-80
2023/08/07 03:33:10;;;;;;;5.38;2.08;;;;;;;13.93;68.02;97152.97;4899183;28;20025;-80
2023/08/07 03:35:35;;;;;;;3.35;2.10;;;;;;;13.93;69.49;97156.41;4910177;28;20597;-79
2023/08/07 03:38:01;;;;;;;4.88;2.13;;;;;;;13.91;69.10;97158.47;4909148;28;20041;-79
2023/08/07 03:40:26;;;;;;;5.50;1.90;;;;;;;13.75;68.83;97157.75;4903968;28;20137;-79
2023/08/07 03:42:51;;;;;;;3.90;2.45;;;;;;;13.82;69.04;97150.38;4866706;28;20080;-79
2023/08/07 03:45:17;;;;;;;3.03;1.92;;;;;;;13.86;68.80;97156.69;4886895;28;20663;-78
2023/08/07 03:47:42;;;;;;;3.63;1.98;;;;;;;13.89;68.51;97163.19;4896666;28;20986;-79
2023/08/07 03:50:08;;;;;;;3.75;1.90;;;;;;;13.83;68.53;97159.03;4913967;28;20038;-79
2023/08/07 03:52:33;;;;;;;3.35;1.80;;;;;;;13.87;69.47;97154.84;4907076;28;20650;-78
2023/08/07 03:54:58;;;;;;;4.43;2.30;;;;;;;13.82;68.98;97152.22;4919410;28;20785;-78
2023/08/07 03:57:24;;;;;;;3.90;1.92;;;;;;;13.82;69.56;97153.00;4914434;28;20133;-79
2023/08/07 03:59:54;;;;;;;4.90;2.17;;;;;;;13.96;68.63;97155.84;4907787;28;20018;-78
2023/08/07 04:02:19;;;;;;;4.28;2.05;;;;;;;13.90;69.03;97158.75;4913822;28;20022;-79
2023/08/07 04:04:44;;;;;;;5.53;2.30;;;;;;;13.82;68.58;97162.69;4911328;28;20038;-78
2023/08/07 04:07:10;;;;;;;3.70;2.38;;;;;;;13.86;68.57;97154.06;4912037;28;20045;-78
2023/08/07 04:09:35;;;;;;;3.42;1.90;;;;;;;13.95;68.29;97162.16;4910346;28;20068;-79
2023/08/07 04:12:00;;;;;;;5.65;1.92;;;;;;;13.89;69.13;97165.03;4897730;28;20034;-80
2023/08/07 04:14:26;;;;;;;4.78;2.50;;;;;;;13.97;68.97;97170.50;4898143;28;20724;-81
2023/08/07 04:16:51;;;;;;;3.50;2.05;;;;;;;13.96;68.73;97163.69;4894959;28;20057;-82
2023/08/07 04:19:17;;;;;;;3.80;2.22;;;;;;;13.89;69.06;97157.97;4912856;28;20038;-80
2023/08/07 04:21:42;;;;;;;4.18;2.40;;;;;;;13.86;68.93;97151.44;4899127;28;20783;-80
2023/08/07 04:24:11;;;;;;;3.38;1.88;;;;;;;13.89;68.68;97159.81;4895588;28;20279;-81
2023/08/07 04:26:39;;;;;;;2.70;2.00;;;;;;;13.96;68.50;97158.47;4883144;28;20029;-80
2023/08/07 04:29:05;;;;;;;2.72;1.95;;;;;;;13.94;68.41;97157.94;4894910;28;20172;-80
2023/08/07 04:31:31;;;;;;;3.17;2.40;;;;;;;13.94;68.46;97163.19;4891554;28;20030;-81
2023/08/07 04:33:59;;;;;;;5.35;2.38;;;;;;;13.82;69.33;97155.63;4913009;28;20529;-80
2023/08/07 04:36:25;;;;;;;4.13;2.15;;;;;;;13.77;69.37;97155.63;4902688;28;20034;-81
2023/08/07 04:38:50;;;;;;;4.18;2.05;;;;;;;13.77;70.42;97154.84;4869592;28;20115;-81
2023/08/07 04:41:16;;;;;;;5.53;1.98;;;;;;;13.82;68.96;97163.47;4914020;28;20036;-80
2023/08/07 04:43:42;;;;;;;5.80;2.33;;;;;;;13.86;68.64;97161.09;4893407;28;20037;-80
2023/08/07 04:46:09;;;;;;;3.63;1.73;;;;;;;13.82;68.78;97160.09;4884506;28;20133;-81
2023/08/07 04:48:35;;;;;;;3.92;2.30;;;;;;;13.82;68.86;97166.09;4894836;28;20122;-79
2023/08/07 04:51:01;;;;;;;5.20;2.17;;;;;;;13.94;67.94;97165.81;4885554;28;20029;-78
2023/08/07 04:53:26;;;;;;;3.38;1.95;;;;;;;13.90;69.04;97169.22;4916488;28;20030;-78
2023/08/07 04:55:52;;;;;;;3.78;2.50;;;;;;;13.87;69.51;97170.53;4899723;28;20033;-78
2023/08/07 04:58:17;;;;;;;4.80;2.40;;;;;;;13.90;68.51;97167.41;4917574;28;20856;-79
2023/08/07 05:00:42;;;;;;;3.33;2.03;;;;;;;13.88;69.68;97179.97;4882830;28;20121;-80
2023/08/07 05:03:08;;;;;;;3.95;2.30;;;;;;;13.91;69.42;97170.78;4880606;28;20049;-78
2023/08/07 05:05:33;;;;;;;4.18;2.08;;;;;;;13.97;70.10;97188.06;4881096;28;20172;-80
2023/08/07 05:07:59;;;;;;;5.30;2.10;;;;;;;14.04;69.10;97185.94;4912829;28;20088;-80
2023/08/07 05:10:24;;;;;;;4.22;2.00;;;;;;;14.08;68.90;97183.56;4921756;28;20850;-81
2023/08/07 05:12:55;;;;;;;4.78;2.22;;;;;;;14.03;69.73;97185.16;4915388;28;20351;-80
2023/08/07 05:15:25;;;;;;;6.05;2.30;;;;;;;14.21;69.58;97189.03;4881671;28;20130;-80
2023/08/07 05:17:50;;;;;;;3.92;2.00;;;;;;;14.17;69.22;97192.44;4919215;28;20022;-81
2023/08/07 05:20:16;;;;;;;3.25;2.33;;;;;;;14.09;69.61;97196.41;4914752;28;20113;-80
2023/08/07 05:22:41;;;;;;;4.00;2.45;;;;;;;14.16;68.10;97204.75;4898142;28;20037;-80
2023/08/07 05:25:09;;;;;;;3.92;2.00;;;;;;;14.03;69.95;97193.03;4895357;28;20077;-81
2023/08/07 05:27:34;;;;;;;4.28;2.10;;;;;;;14.04;68.63;97199.03;4905355;28;20062;-80
2023/08/07 05:30:00;;;;;;;3.15;2.30;;;;;;;14.09;68.71;97200.88;4910205;28;20125;-80
2023/08/07 05:32:25;;;;;;;2.88;1.83;;;;;;;14.13;68.61;97199.28;4896167;28;20620;-81
2023/08/07 05:34:51;;;;;;;3.58;2.60;;;;;;;14.08;68.76;97205.28;4878430;28;20029;-80
2023/08/07 05:37:16;;;;;;;3.13;2.33;;;;;;;14.05;68.64;97198.78;4899194;28;20025;-81
2023/08/07 05:39:41;;;;;;;3.35;2.25;;;;;;;14.01;69.01;97208.19;4880917;28;20595;-80
2023/08/07 05:42:08;;;;;;;2.38;1.98;;;;;;;14.03;68.99;97206.13;4903500;28;20377;-81
2023/08/07 05:44:33;;;;;;;3.72;2.10;;;;;;;13.99;69.04;97212.91;4912635;28;20084;-80
2023/08/07 05:46:58;;;;;;;3.22;2.42;;;;;;;14.00;68.86;97217.13;4899813;28;20026;-78
2023/08/07 05:49:24;;;;;;;3.25;2.40;;;;;;;13.95;69.40;97226.78;4916227;28;20026;-80
2023/08/07 05:51:49;;;;;;;5.25;2.38;;;;;;;14.04;68.47;97218.13;4893273;28;20326;-80
2023/08/07 05:54:14;;;;;;;3.90;2.83;;;;;;;14.09;67.56;97219.19;4898222;28;20034;-80
2023/08/07 05:56:40;;;;;;;3.08;1.98;;;;;;;14.17;68.24;97210.78;4918366;28;20345;-80
2023/08/07 05:59:06;;;;;;;3.60;2.17;;;;;;;14.14;68.34;97221.81;4900562;28;20121;-79
2023/08/07 06:01:31;;;;;;;4.13;2.00;;;;;;;14.26;68.07;97226.72;4899375;28;20841;-80
2023/08/07 06:04:00;;;;;;;3.42;2.35;;;;;;;14.42;67.44;97234.25;4911741;28;20046;-81
2023/08/07 06:06:27;;;;;;;2.88;2.05;;;;;;;14.43;67.84;97230.59;4911194;28;20473;-80
2023/08/07 06:08:53;;;;;;;4.90;2.10;;;;;;;14.49;68.86;97239.22;4884197;28;20029;-79
2023/08/07 06:11:19;;;;;;;3.95;2.05;;;;;;;14.43;66.18;97238.47;4922555;28;20034;-79
2023/08/07 06:13:44;;;;;;;3.83;1.80;;;;;;;14.55;66.28;97234.75;4884978;28;20033;-78
2023/08/07 06:16:10;;;;;;;2.28;1.70;;;;;;;14.70;66.16;97239.97;4892154;28;20113;-78
2023/08/07 06:18:36;;;;;;;2.50;1.77;;;;;;;14.69;66.93;97233.16;4932339;28;20560;-79
2023/08/07 06:21:02;;;;;;;3.80;1.75;;;;;;;14.71;66.10;97236.28;4899616;28;20034;-78
2023/08/07 06:23:27;;;;;;;4.47;2.22;;;;;;;14.68;66.51;97221.09;4881870;28;20085;-78
2023/08/07 06:25:52;;;;;;;3.40;1.83;;;;;;;14.68;64.96;97231.56;4926672;28;20053;-79
2023/08/07 06:28:18;;;;;;;5.45;1.80;;;;;;;14.72;65.39;97232.63;4900471;28;20033;-78
2023/08/07 06:30:43;;;;;;;3.67;2.30;;;;;;;14.72;66.88;97226.56;4907961;28;20928;-79
2023/08/07 06:33:09;;;;;;;3.47;1.60;;;;;;;14.83;65.99;97232.56;4884622;28;20022;-79
2023/08/07 06:35:38;;;;;;;3.65;1.63;;;;;;;14.81;65.44;97240.72;4885103;28;20033;-79
2023/08/07 06:38:04;;;;;;;5.45;2.10;;;;;;;14.80;66.00;97236.50;4916751;28;20064;-78
2023/08/07 06:40:30;;;;;;;3.22;2.38;;;;;;;14.89;64.95;97237.53;4913490;28;20703;-78
2023/08/07 06:42:55;;;;;;;3.25;1.85;;;;;;;14.82;64.32;97236.25;4895853;28;20854;-79
2023/08/07 06:45:20;;;;;;;1.95;1.27;;;;;;;15.00;64.41;97246.09;4881431;28;20185;-79
2023/08/07 06:47:46;;;;;;;3.10;1.85;;;;;;;15.06;64.36;97252.09;4931121;28;20038;-79
2023/08/07 06:50:13;;;;;;;1.95;1.60;;;;;;;15.01;64.14;97244.25;4898136;28;20034;-79
2023/08/07 06:52:38;;;;;;;3.70;1.85;;;;;;;14.92;63.58;97244.06;4878659;28;20026;-78
2023/08/07 06:55:04;;;;;;;3.17;1.60;;;;;;;15.01;63.54;97255.56;4883159;28;20080;-79
2023/08/07 06:57:29;;;;;;;4.03;1.95;;;;;;;14.97;64.71;97254.50;4915012;28;20034;-79
2023/08/07 06:59:55;;;;;;;2.95;1.80;;;;;;;15.03;64.10;97263.13;4909422;28;20026;-79
2023/08/07 07:02:20;;;;;;;3.70;1.80;;;;;;;15.01;63.36;97255.56;4919885;28;20097;-78
2023/08/07 07:04:45;;;;;;;3.20;1.70;;;;;;;15.14;63.85;97265.44;4873545;28;20788;-79
2023/08/07 07:07:11;;;;;;;2.75;1.50;;;;;;;15.16;63.77;97271.22;4913304;28;20604;-79
2023/08/07 07:09:36;;;;;;;3.03;1.50;;;;;;;15.21;62.93;97264.34;4875608;28;20612;-79
2023/08/07 07:12:02;;;;;;;4.82;1.70;;;;;;;15.33;62.48;97259.53;4909959;28;20688;-78
2023/08/07 07:14:27;;;;;;;3.28;1.60;;;;;;;15.59;63.89;97273.25;4868733;28;20125;-79
2023/08/07 07:16:52;;;;;;;2.20;1.50;;;;;;;15.57;61.23;97274.59;4913250;28;20109;-80
2023/08/07 07:19:18;;;;;;;2.20;2.00;;;;;;;15.52;62.72;97268.34;4911026;28;20072;-81
2023/08/07 07:21:44;;;;;;;3.05;1.50;;;;;;;15.81;60.66;97272.84;4893006;28;20045;-80
2023/08/07 07:24:09;;;;;;;3.85;1.40;;;;;;;15.99;61.13;97273.22;4881824;28;20683;-81
2023/08/07 07:26:35;;;;;;;5.53;2.08;;;;;;;16.08;58.79;97279.47;4913893;28;20037;-81
2023/08/07 07:29:00;;;;;;;2.90;1.60;;;;;;;15.89;58.63;97280.16;4879548;28;20033;-81
2023/08/07 07:31:27;;;;;;;3.90;1.80;;;;;;;15.97;58.88;97280.59;4906482;28;20116;-81
2023/08/07 07:33:53;;;;;;;1.98;1.55;;;;;;;16.11;58.97;97286.81;4899596;28;20378;-80
2023/08/07 07:36:19;;;;;;;2.50;1.33;;;;;;;16.03;57.46;97292.66;4874803;28;20025;-79
2023/08/07 07:38:46;;;;;;;2.70;1.83;;;;;;;15.93;58.50;97292.72;4897076;28;20037;-80
2023/08/07 07:41:11;;;;;;;2.17;1.42;;;;;;;15.95;58.73;97294.00;4891996;28;20025;-80
2023/08/07 07:43:37;;;;;;;2.03;1.50;;;;;;;15.89;59.17;97279.38;4910623;28;20528;-80
2023/08/07 07:46:03;;;;;;;5.13;1.52;;;;;;;16.00;58.60;97285.31;4897948;28;20030;-82
2023/08/07 07:48:28;;;;;;;3.22;1.20;;;;;;;16.10;58.64;97293.88;4913614;28;20057;-80
2023/08/07 07:51:03;;;;;;;1.98;1.88;;;;;;;16.09;57.02;97297.59;4915808;28;20676;-81
2023/08/07 07:53:29;;;;;;;;;;;;;;;16.01;57.71;97307.91;4891340;28;20036;-81
2023/08/07 07:55:54;;;;;;;1.85;1.48;;;;;;;16.05;57.38;97303.66;4895002;28;20190;-78
2023/08/07 07:58:20;;;;;;;2.55;1.23;;;;;;;16.12;57.81;97298.84;4877971;28;20585;-81
2023/08/07 08:00:46;;;;;;;2.47;1.30;;;;;;;16.24;56.46;97301.13;4875106;28;20278;-78
2023/08/07 08:03:12;;;;;;;3.83;1.77;;;;;;;16.29;56.40;97293.97;4877888;28;20176;-80
2023/08/07 08:05:38;;;;;;;2.22;1.20;;;;;;;16.32;56.95;97297.88;4909784;28;20257;-78
2023/08/07 08:08:03;;;;;;;3.25;1.40;;;;;;;16.34;57.32;97310.75;4883436;28;20215;-78
2023/08/07 08:10:29;;;;;;;2.55;1.48;;;;;;;16.32;56.73;97311.03;4886291;28;20389;-78
2023/08/07 08:12:55;;;;;;;2.65;1.40;;;;;;;16.22;56.30;97309.28;4908856;28;20182;-78
2023/08/07 08:15:21;;;;;;;2.05;1.30;;;;;;;16.28;57.07;97321.31;4884830;28;20202;-78
2023/08/07 08:17:46;;;;;;;2.47;1.55;;;;;;;16.30;57.50;97315.78;4887851;28;20175;-79
2023/08/07 08:20:15;;;;;;;2.97;1.60;;;;;;;16.14;56.02;97316.97;4893696;28;20140;-79
2023/08/07 08:22:41;;;;;;;1.92;1.25;;;;;;;16.18;56.71;97324.03;4871455;28;20462;-77
2023/08/07 08:25:06;;;;;;;2.83;1.70;;;;;;;16.39;56.24;97329.09;4908085;28;20289;-77
2023/08/07 08:27:32;;;;;;;1.52;1.40;;;;;;;16.55;56.73;97327.88;4892492;28;20368;-77
2023/08/07 08:29:57;;;;;;;3.25;1.45;;;;;;;16.44;57.69;97321.94;4913323;28;20698;-78
2023/08/07 08:32:23;;;;;;;2.67;2.05;;;;;;;16.55;56.31;97340.22;4895994;28;20756;-79
2023/08/07 08:34:49;;;;;;;3.05;1.58;;;;;;;16.44;55.59;97334.31;4910303;28;20665;-78
2023/08/07 08:37:15;;;;;;;3.40;1.55;;;;;;;16.37;57.50;97344.34;4911162;28;20275;-80
2023/08/07 08:39:40;;;;;;;2.03;1.40;;;;;;;16.35;55.01;97334.13;4878540;28;20363;-79
2023/08/07 08:42:09;;;;;;;4.85;2.10;;;;;;;16.39;56.27;97326.47;4910372;28;20768;-78
2023/08/07 08:44:36;;;;;;;2.95;1.58;;;;;;;16.47;56.17;97325.88;4894073;28;20293;-78
2023/08/07 08:47:03;;;;;;;1.95;1.63;;;;;;;16.39;55.38;97329.88;4906437;28;20030;-80
2023/08/07 08:49:32;;;;;;;4.05;1.42;;;;;;;16.27;55.16;97321.59;4898448;28;20030;-78
2023/08/07 08:51:58;;;;;;;3.22;1.35;;;;;;;16.48;55.56;97335.31;4912309;28;20577;-78
2023/08/07 08:54:25;;;;;;;2.30;1.10;;;;;;;16.53;54.89;97335.25;4916998;28;20025;-79
2023/08/07 08:56:50;;;;;;;4.30;1.40;;;;;;;16.72;54.53;97331.91;4910817;28;20669;-79
2023/08/07 08:59:18;;;;;;;2.90;1.30;;;;;;;16.77;54.18;97337.09;4882514;28;20031;-79
2023/08/07 09:01:44;;;;;;;2.38;1.30;;;;;;;16.74;54.05;97341.09;4876786;28;20836;-81
2023/08/07 09:04:10;;;;;;;4.03;1.40;;;;;;;16.74;53.55;97337.66;4891492;28;20593;-78
2023/08/07 09:06:35;;;;;;;1.98;1.70;;;;;;;16.69;55.22;97327.19;4891991;28;20058;-81
2023/08/07 09:09:01;;;;;;;3.63;1.00;;;;;;;16.79;53.54;97333.16;4887780;28;20214;-78
2023/08/07 09:11:27;;;;;;;3.17;1.27;;;;;;;16.72;53.42;97342.41;4909618;28;20030;-79
2023/08/07 09:13:54;;;;;;;2.33;1.30;;;;;;;16.70;53.52;97334.81;4911987;28;20033;-79
2023/08/07 09:16:20;;;;;;;1.30;1.00;;;;;;;16.82;53.71;97337.06;4897106;28;20112;-80
2023/08/07 09:18:45;;;;;;;2.80;1.10;;;;;;;16.76;53.00;97344.22;4912033;28;20769;-79
2023/08/07 09:21:11;;;;;;;2.58;1.55;;;;;;;16.84;53.79;97338.38;4898574;28;20558;-78
2023/08/07 09:23:36;;;;;;;2.30;1.20;;;;;;;16.78;52.27;97338.69;4912547;28;20025;-79
2023/08/07 09:26:04;;;;;;;1.88;1.10;;;;;;;17.00;52.74;97343.47;4911667;28;20327;-80
2023/08/07 09:28:30;;;;;;;3.08;1.15;;;;;;;17.08;52.45;97328.88;4880988;28;20126;-78
2023/08/07 09:30:56;;;;;;;1.70;1.40;;;;;;;17.17;53.37;97345.59;4911545;28;20104;-79
2023/08/07 09:33:29;;;;;;;2.50;1.35;;;;;;;17.29;54.22;97343.34;4872138;28;20354;-78
2023/08/07 09:35:59;;;;;;;2.28;1.30;;;;;;;17.31;53.25;97345.72;4906203;28;20620;-79
2023/08/07 09:38:28;;;;;;;3.03;1.48;;;;;;;17.31;53.25;97338.59;4903043;28;20588;-78
2023/08/07 09:40:53;;;;;;;2.22;1.15;;;;;;;17.35;51.82;97350.09;4894024;28;20280;-78
2023/08/07 09:43:22;;;;;;;1.92;1.25;;;;;;;17.36;52.40;97356.94;4904890;28;20287;-79
2023/08/07 09:45:50;;;;;;;2.00;1.10;;;;;;;17.38;51.15;97354.03;4894905;28;20194;-78
2023/08/07 09:48:23;;;;;;;2.80;1.30;;;;;;;17.41;51.05;97354.25;4896541;28;20211;-78
2023/08/07 09:50:48;;;;;;;2.05;1.30;;;;;;;17.26;50.82;97357.06;4925053;28;20216;-80
2023/08/07 09:53:14;;;;;;;2.05;1.20;;;;;;;17.34;51.16;97359.09;4895106;28;20046;-79
2023/08/07 09:55:39;;;;;;;2.65;1.35;;;;;;;17.39;50.63;97350.31;4908438;28;20940;-79
2023/08/07 09:58:07;;;;;;;2.47;1.17;;;;;;;17.27;50.50;97350.72;4912864;28;20030;-80
2023/08/07 10:00:36;;;;;;;1.98;1.10;;;;;;;17.31;50.55;97350.97;4885000;28;20304;-78
2023/08/07 10:03:01;;;;;;;1.67;1.10;;;;;;;17.42;50.77;97360.28;4879993;28;20273;-79
2023/08/07 10:05:27;;;;;;;1.55;1.10;;;;;;;17.43;52.30;97359.22;4909266;28;20777;-79
2023/08/07 10:07:54;;;;;;;1.45;1.23;;;;;;;17.45;50.47;97364.22;4907730;28;20692;-78
2023/08/07 10:10:20;;;;;;;1.45;1.23;;;;;;;17.47;52.27;97356.81;4911659;28;20288;-80
2023/08/07 10:12:47;;;;;;;2.72;1.40;;;;;;;17.52;50.05;97368.03;4893988;28;20202;-80
2023/08/07 10:15:14;;;;;;;1.30;1.02;;;;;;;17.75;50.14;97363.78;4894526;28;20147;-79
2023/08/07 10:17:39;;;;;;;1.90;0.98;;;;;;;17.94;50.74;97360.34;4890868;28;20729;-79
2023/08/07 10:20:07;;;;;;;1.67;1.25;;;;;;;18.10;49.89;97369.59;4907970;28;20217;-80
2023/08/07 10:22:34;;;;;;;1.95;1.08;;;;;;;18.21;51.50;97354.38;4873251;28;20199;-79
2023/08/07 10:25:02;;;;;;;2.00;1.45;;;;;;;18.33;48.82;97367.09;4908630;28;20199;-80
2023/08/07 10:27:31;;;;;;;2.03;1.25;;;;;;;18.50;49.48;97361.28;4886528;28;20214;-79
2023/08/07 10:29:58;;;;;;;2.00;1.02;;;;;;;18.31;47.87;97359.50;4884395;28;20568;-80
2023/08/07 10:32:24;;;;;;;1.48;1.20;;;;;;;18.27;48.05;97360.38;4878526;28;20214;-78
2023/08/07 10:34:50;;;;;;;1.92;1.00;;;;;;;18.33;47.34;97367.91;4894393;28;20636;-78
2023/08/07 10:37:42;;;;;;;2.17;1.90;;;;;;;18.33;49.72;97367.09;4888032;28;20167;-79
2023/08/07 10:40:12;;;;;;;1.20;1.00;;;;;;;18.20;47.87;97362.59;4904126;28;20273;-78
2023/08/07 10:43:11;;;;;;;2.13;1.23;;;;;;;18.19;47.31;97367.06;4891209;28;20159;-78
2023/08/07 10:45:38;;;;;;;1.88;1.40;;;;;;;18.27;48.13;97368.28;4888958;28;20653;-79
2023/08/07 10:48:17;;;;;;;1.05;0.90;;;;;;;18.61;47.45;97377.69;4886524;28;20218;-78
2023/08/07 10:50:57;;;;;;;2.08;0.98;;;;;;;18.72;49.08;97373.81;4891939;28;20428;-78
2023/08/07 10:53:28;;;;;;;1.85;1.08;;;;;;;18.97;47.42;97369.94;4906857;28;20691;-78
2023/08/07 10:55:57;;;;;;;1.00;0.90;;;;;;;19.18;45.73;97362.41;4883618;28;20210;-78
2023/08/07 10:58:29;;;;;;;2.70;1.10;;;;;;;19.38;45.91;97360.41;4908719;28;20197;-77
2023/08/07 11:01:20;;;;;;;1.55;1.30;;;;;;;19.37;46.91;97358.84;4903921;28;20276;-78
2023/08/07 11:03:57;;;;;;;1.75;1.50;;;;;;;19.19;45.31;97365.81;4908696;28;20531;-78
2023/08/07 11:06:31;;;;;;;1.85;0.98;;;;;;;19.36;45.84;97373.13;4877839;28;20262;-78
2023/08/07 11:08:57;;;;;;;1.30;1.00;;;;;;;19.88;44.25;97363.03;4906938;28;20696;-79
2023/08/07 11:11:22;;;;;;;1.50;1.00;;;;;;;20.55;43.99;97366.69;4888153;28;20285;-79
2023/08/07 11:13:48;;;;;;;1.67;1.23;;;;;;;20.91;40.78;97368.41;4898467;28;20192;-79
2023/08/07 11:16:13;;;;;;;1.20;1.10;;;;;;;20.95;42.79;97361.41;4890532;28;20700;-78
2023/08/07 11:18:41;;;;;;;1.60;1.30;;;;;;;20.89;40.74;97360.78;4918758;28;20269;-79
2023/08/07 11:21:11;;;;;;;3.47;1.83;;;;;;;20.84;43.60;97365.44;4902290;28;20287;-78
2023/08/07 11:23:40;;;;;;;1.80;1.70;;;;;;;20.76;44.00;97359.78;4889276;28;20294;-79
2023/08/07 11:26:06;;;;;;;1.65;1.25;;;;;;;20.29;41.49;97351.47;4907358;28;20569;-78
2023/08/07 11:28:31;;;;;;;1.33;1.20;;;;;;;20.28;41.61;97360.47;4875194;28;20206;-80
2023/08/07 11:30:57;;;;;;;1.70;1.10;;;;;;;20.35;42.51;97368.75;4889888;28;20661;-79